This is the latest recevied weather packets stored in our database for station/object IW2HNF-3. If no packets are shown the sender has not sent any weather packets the latest 10 day(s).
| Time | Temp. | Humidity | Pressure | Rain* | Wind** | Luminosity | Snow |
|---|---|---|---|---|---|---|---|
| 1788145856 | 21.67° C | 75% | 1014.1 hPa | 0 mm | - | - | - |
| 1788145233 | 21.67° C | 75% | 1014.2 hPa | 0 mm | - | - | - |
| 1788144656 | 21.67° C | 74% | 1014.1 hPa | 0 mm | - | - | - |
| 1788144033 | 22.22° C | 73% | 1014 hPa | 0 mm | - | - | - |
| 1788143456 | 22.22° C | 72% | 1013.9 hPa | 0 mm | - | - | - |
| 1788142832 | 22.22° C | 72% | 1014 hPa | 0 mm | - | - | - |
| 1788142256 | 22.22° C | 72% | 1014 hPa | 0 mm | - | - | - |
| 1788122432 | 23.89° C | 63% | 1014.4 hPa | 0 mm | - | - | - |
| 1788121856 | 23.89° C | 63% | 1014.4 hPa | 0 mm | - | - | - |
| 1788120464 | 24.44° C | 62% | 1014.2 hPa | 0 mm | - | - | - |
| 1788118256 | 25.56° C | 56% | 1014.1 hPa | 0 mm | - | - | - |
| 1788117632 | 26.11° C | 56% | 1014.1 hPa | 0 mm | - | - | - |
| 1788115856 | 26.11° C | 54% | 1013.7 hPa | 0 mm | - | - | - |
| 1788114658 | 26.11° C | 53% | 1013.6 hPa | 0 mm | - | - | - |
| 1788114032 | 26.67° C | 51% | 1013.5 hPa | 0 mm | - | - | - |
| 1788113456 | 27.22° C | 51% | 1013.4 hPa | 0 mm | - | - | - |
| 1788112257 | 28.33° C | 48% | 1013.3 hPa | 0 mm | - | - | - |
| 1788111632 | 29.44° C | 47% | 1013.3 hPa | 0 mm | - | - | - |
| 1788111056 | 29.44° C | 44% | 1013.2 hPa | 0 mm | - | - | - |
| 1788109857 | 30° C | 44% | 1013.2 hPa | 0 mm | - | - | - |
| 1788109233 | 29.44° C | 43% | 1013.2 hPa | 0 mm | - | - | - |
| 1788108656 | 30° C | 43% | 1013.2 hPa | 0 mm | - | - | - |
| 1788107457 | 30° C | 44% | 1013.3 hPa | 0 mm | - | - | - |
| 1788106832 | 30° C | 44% | 1013.3 hPa | 0 mm | - | - | - |
| 1788106256 | 30° C | 43% | 1013.3 hPa | 0 mm | - | - | - |
* Rain latest hour (hover to see other rain measurements)
** Current wind speed in m/s (hover to see current wind gust speed)